Time;durP1;ratioP1;P1;durP2;ratioP2;P2;SDS_P1;SDS_P2;PMS_P1;PMS_P2;Temp;Humidity;BMP_temperature;BMP_pressure;BME280_temperature;BME280_humidity;BME280_pressure;Samples;Min_cycle;Max_cycle;Signal;HPM_P1;HPM_P2
2022/01/28 00:01:55;;;;;;;18.80;10.23;;;1.80;99.90;;;;;;5074477;28;20059;-73
2022/01/28 00:04:27;;;;;;;17.10;10.40;;;1.80;99.90;;;;;;5087087;28;20481;-73
2022/01/28 00:06:54;;;;;;;16.02;9.77;;;1.80;99.90;;;;;;5057782;28;20147;-73
2022/01/28 00:09:26;;;;;;;18.85;11.43;;;1.80;99.90;;;;;;5089959;28;20044;-73
2022/01/28 00:11:53;;;;;;;20.40;10.57;;;1.80;99.90;;;;;;5092074;28;20115;-73
2022/01/28 00:14:32;;;;;;;19.83;10.45;;;1.80;99.90;;;;;;5091707;28;20123;-73
2022/01/28 00:39:14;;;;;;;23.63;12.30;;;1.70;99.90;;;;;;5073760;28;20490;-73
2022/01/28 00:41:46;;;;;;;20.70;11.23;;;1.70;99.90;;;;;;5091825;28;20072;-73
2022/01/28 00:44:13;;;;;;;22.55;10.80;;;1.60;99.90;;;;;;5072947;28;20040;-73
2022/01/28 00:46:40;;;;;;;20.45;11.38;;;1.60;99.90;;;;;;5057002;28;20052;-73
2022/01/28 00:49:11;;;;;;;19.42;11.32;;;1.60;99.90;;;;;;5073416;28;20071;-73
2022/01/28 00:51:38;;;;;;;18.45;10.57;;;1.70;99.90;;;;;;5073667;28;20132;-73
2022/01/28 00:54:10;;;;;;;19.15;10.05;;;1.70;99.90;;;;;;5091023;28;20105;-73
2022/01/28 00:56:37;;;;;;;19.33;11.02;;;1.70;99.90;;;;;;5091294;28;20064;-73
2022/01/28 00:59:09;;;;;;;20.55;10.45;;;1.70;99.90;;;;;;5073383;28;20127;-74
2022/01/28 01:01:41;;;;;;;17.88;10.57;;;1.70;99.90;;;;;;5057482;28;20455;-73
2022/01/28 01:04:13;;;;;;;19.92;10.55;;;1.70;99.90;;;;;;5056968;28;20040;-73
2022/01/28 01:06:45;;;;;;;19.17;10.60;;;1.70;99.90;;;;;;5057299;28;20491;-73
2022/01/28 01:09:11;;;;;;;20.10;10.77;;;1.80;99.90;;;;;;5073426;28;20083;-73
2022/01/28 01:11:43;;;;;;;19.58;10.60;;;1.80;99.90;;;;;;5071199;28;20044;-74
2022/01/28 01:14:15;;;;;;;15.77;9.80;;;1.80;99.90;;;;;;5062308;28;20135;-73
2022/01/28 01:17:21;;;;;;;18.75;9.68;;;1.80;99.90;;;;;;5091196;28;20491;-73
2022/01/28 01:19:43;;;;;;;19.27;10.38;;;1.80;99.90;;;;;;5091297;28;20063;-73
2022/01/28 01:22:15;;;;;;;16.42;10.45;;;1.80;99.90;;;;;;5073015;28;20043;-73
2022/01/28 01:24:51;;;;;;;18.00;10.15;;;1.80;99.90;;;;;;5072796;28;20502;-73
2022/01/28 01:27:23;;;;;;;18.27;10.32;;;1.80;99.90;;;;;;5090900;28;20050;-73
2022/01/28 01:29:54;;;;;;;17.45;9.93;;;1.80;99.90;;;;;;5073040;28;20134;-73
2022/01/28 01:32:22;;;;;;;18.20;9.20;;;1.80;99.90;;;;;;5072701;28;20090;-73
2022/01/28 01:34:54;;;;;;;14.73;9.23;;;1.80;99.90;;;;;;5073040;28;20089;-73
2022/01/28 01:37:25;;;;;;;14.05;8.55;;;1.80;99.90;;;;;;5057021;28;20060;-73
2022/01/28 01:39:53;;;;;;;16.02;8.80;;;1.70;99.90;;;;;;5090905;28;20075;-73
2022/01/28 01:53:40;;;;;;;16.88;9.40;;;1.80;99.90;;;;;;5072269;28;20044;-73
2022/01/28 01:56:07;;;;;;;17.65;9.52;;;1.80;99.90;;;;;;5090606;28;20064;-73
2022/01/28 01:58:41;;;;;;;13.13;7.70;;;1.90;99.90;;;;;;5069360;28;20044;-73
2022/01/28 02:01:13;;;;;;;15.43;8.70;;;1.90;99.90;;;;;;5070029;28;20045;-73
2022/01/28 02:03:45;;;;;;;16.45;9.25;;;1.90;99.90;;;;;;5069630;28;20056;-73
2022/01/28 02:06:22;;;;;;;15.80;9.23;;;1.90;99.90;;;;;;5069982;28;20407;-73
2022/01/28 02:08:54;;;;;;;16.33;8.75;;;2.00;99.90;;;;;;5052076;28;20044;-73
2022/01/28 02:11:26;;;;;;;15.48;8.98;;;1.90;99.90;;;;;;5069012;28;20048;-73
2022/01/28 02:13:57;;;;;;;13.23;7.22;;;2.00;99.90;;;;;;5052265;28;20090;-73
2022/01/28 02:16:24;;;;;;;12.45;7.47;;;2.00;99.90;;;;;;5070301;28;20072;-73
2022/01/28 02:18:52;;;;;;;14.15;8.02;;;2.00;99.90;;;;;;5069147;28;20131;-73
2022/01/28 02:21:24;;;;;;;14.73;8.20;;;2.00;99.90;;;;;;5052101;28;20045;-73
2022/01/28 02:24:01;;;;;;;12.63;7.70;;;2.10;99.90;;;;;;5051610;28;20068;-73
2022/01/28 02:26:35;;;;;;;13.98;8.52;;;2.10;99.90;;;;;;5071377;28;20080;-73
2022/01/28 02:29:13;;;;;;;12.55;7.68;;;2.10;99.90;;;;;;5065108;28;20044;-73
2022/01/28 02:31:45;;;;;;;13.77;7.25;;;2.10;99.90;;;;;;5093525;28;20418;-73
2022/01/28 02:34:17;;;;;;;12.80;8.25;;;2.10;99.90;;;;;;5059648;28;20048;-73
2022/01/28 02:36:49;;;;;;;10.48;7.00;;;2.10;99.90;;;;;;5093990;28;20062;-73
2022/01/28 02:39:21;;;;;;;12.20;8.07;;;2.00;99.90;;;;;;5075925;28;20054;-73
2022/01/28 02:41:51;;;;;;;14.55;8.13;;;2.10;99.90;;;;;;5093821;28;20044;-73
2022/01/28 02:44:48;;;;;;;14.30;7.07;;;2.10;99.90;;;;;;5076271;28;20024;-73
2022/01/28 02:47:14;;;;;;;14.00;7.63;;;2.20;99.90;;;;;;5075688;28;20079;-73
2022/01/28 02:49:43;;;;;;;13.93;6.82;;;2.20;99.90;;;;;;5075690;28;20119;-73
2022/01/28 02:52:18;;;;;;;11.93;6.95;;;2.20;99.90;;;;;;5093693;28;20462;-73
2022/01/28 02:54:50;;;;;;;14.93;6.95;;;2.20;99.90;;;;;;5093753;28;20040;-73
2022/01/28 02:57:24;;;;;;;13.15;7.70;;;2.20;99.90;;;;;;5093490;28;20119;-73
2022/01/28 02:59:55;;;;;;;10.38;6.20;;;2.20;99.90;;;;;;5075468;28;20040;-73
2022/01/28 03:02:27;;;;;;;13.02;7.30;;;2.20;99.90;;;;;;5075101;28;20044;-73
2022/01/28 03:07:28;;;;;;;11.60;6.80;;;2.20;99.90;;;;;;5075374;28;20071;-73
2022/01/28 03:12:48;;;;;;;11.40;6.93;;;2.20;99.90;;;;;;5074761;28;20044;-73
2022/01/28 03:15:22;;;;;;;15.60;7.65;;;2.10;99.90;;;;;;5076447;28;20044;-73
2022/01/28 03:18:10;;;;;;;12.10;6.70;;;2.10;99.90;;;;;;5075151;28;20048;-73
2022/01/28 03:20:56;;;;;;;10.85;7.47;;;2.20;99.90;;;;;;5059096;28;20067;-73
2022/01/28 03:23:28;;;;;;;11.05;6.80;;;2.20;99.90;;;;;;5074738;28;20046;-73
2022/01/28 03:25:54;;;;;;;11.80;6.57;;;2.20;99.90;;;;;;5075153;28;20115;-73
2022/01/28 03:28:26;;;;;;;11.82;6.57;;;2.20;99.90;;;;;;5075881;28;20082;-73
2022/01/28 03:30:58;;;;;;;11.82;6.32;;;2.20;99.90;;;;;;5059008;28;20044;-72
2022/01/28 03:33:30;;;;;;;9.60;5.55;;;2.20;99.90;;;;;;5075449;28;20040;-73
2022/01/28 03:36:08;;;;;;;10.65;6.22;;;2.20;99.90;;;;;;5074809;28;20134;-73
2022/01/28 03:38:36;;;;;;;11.77;5.80;;;2.30;99.90;;;;;;5091769;28;20118;-73
2022/01/28 03:41:13;;;;;;;11.15;6.40;;;2.30;99.90;;;;;;5092791;28;20089;-73
2022/01/28 03:43:47;;;;;;;10.32;6.35;;;2.20;99.90;;;;;;5074263;28;20490;-73
2022/01/28 03:46:14;;;;;;;10.07;6.60;;;2.20;99.90;;;;;;5074667;28;20036;-73
2022/01/28 03:48:42;;;;;;;10.88;6.60;;;2.20;99.90;;;;;;5074522;28;20044;-73
2022/01/28 03:51:14;;;;;;;10.80;6.30;;;2.20;99.90;;;;;;5074329;28;20136;-73
2022/01/28 03:53:45;;;;;;;10.32;5.82;;;2.10;99.90;;;;;;5092319;28;20062;-73
2022/01/28 03:56:17;;;;;;;12.10;6.72;;;2.20;99.90;;;;;;5075240;28;20039;-73
2022/01/28 03:58:44;;;;;;;12.45;6.20;;;2.20;99.90;;;;;;5092418;28;20067;-72
2022/01/28 04:01:20;;;;;;;12.73;6.88;;;2.20;99.90;;;;;;5058193;28;20117;-73
2022/01/28 04:04:03;;;;;;;10.80;6.25;;;2.20;99.90;;;;;;5073776;28;20572;-73
2022/01/28 04:12:11;;;;;;;9.88;6.57;;;2.20;99.90;;;;;;5074245;28;20470;-73
2022/01/28 04:14:58;;;;;;;10.55;6.32;;;2.20;99.90;;;;;;5073862;28;20068;-72
2022/01/28 04:17:25;;;;;;;10.30;6.10;;;2.20;99.90;;;;;;5073801;28;20047;-73
2022/01/28 04:19:52;;;;;;;10.93;6.13;;;2.10;99.90;;;;;;5074080;28;20090;-73
2022/01/28 04:22:25;;;;;;;9.70;5.75;;;2.10;99.90;;;;;;5073474;28;20044;-73
2022/01/28 04:24:52;;;;;;;9.60;5.93;;;2.10;99.90;;;;;;5073920;28;20131;-73
2022/01/28 04:27:24;;;;;;;9.75;6.10;;;2.10;99.90;;;;;;5071665;28;20040;-73
2022/01/28 04:29:55;;;;;;;8.02;5.25;;;2.00;99.90;;;;;;5071653;28;20064;-73
2022/01/28 04:32:29;;;;;;;10.32;5.45;;;2.00;99.90;;;;;;5070079;28;20064;-73
2022/01/28 04:35:01;;;;;;;8.52;5.88;;;2.00;99.90;;;;;;5070576;28;20459;-73
2022/01/28 04:40:20;;;;;;;11.23;7.22;;;2.10;99.90;;;;;;5071562;28;20495;-74
2022/01/28 04:45:40;;;;;;;8.75;5.47;;;2.10;99.90;;;;;;5071455;28;20562;-73
2022/01/28 04:53:33;;;;;;;8.63;6.07;;;2.20;99.90;;;;;;5070157;28;20454;-73
2022/01/28 04:58:55;;;;;;;9.52;5.63;;;2.10;99.90;;;;;;5070583;28;20051;-73
2022/01/28 05:02:00;;;;;;;8.75;5.20;;;2.10;99.90;;;;;;5069487;28;20500;-73
2022/01/28 05:26:38;;;;;;;7.97;4.47;;;2.20;99.90;;;;;;5072149;28;20081;-72
2022/01/28 05:29:09;;;;;;;10.45;4.80;;;2.20;99.90;;;;;;5089461;28;20393;-73
2022/01/28 05:31:41;;;;;;;8.20;5.38;;;2.20;99.90;;;;;;5089311;28;20119;-73
2022/01/28 05:34:14;;;;;;;8.95;5.05;;;2.10;99.90;;;;;;5077809;28;20029;-73
2022/01/28 05:36:41;;;;;;;8.80;4.30;;;2.00;99.90;;;;;;5069212;28;20555;-72
2022/01/28 05:39:13;;;;;;;7.50;4.85;;;2.00;99.90;;;;;;5072074;28;20398;-73
2022/01/28 05:41:39;;;;;;;7.65;4.35;;;2.00;99.90;;;;;;5055770;28;20040;-74
2022/01/28 05:44:11;;;;;;;7.05;4.78;;;2.00;99.90;;;;;;5072058;28;20127;-72
2022/01/28 05:46:44;;;;;;;7.25;4.82;;;1.90;99.90;;;;;;5072611;28;20040;-73
2022/01/28 05:49:16;;;;;;;7.40;5.43;;;1.90;99.90;;;;;;5068901;28;20123;-73
2022/01/28 05:51:48;;;;;;;7.88;5.03;;;1.80;99.90;;;;;;5086901;28;20032;-73
2022/01/28 05:54:15;;;;;;;7.68;4.30;;;1.80;99.90;;;;;;5087925;28;20079;-73
2022/01/28 05:56:42;;;;;;;8.40;4.85;;;1.80;99.90;;;;;;5071908;28;20491;-73
2022/01/28 05:59:14;;;;;;;13.57;5.18;;;1.80;99.90;;;;;;5073077;28;20506;-73
2022/01/28 06:01:46;;;;;;;8.40;5.30;;;1.80;99.90;;;;;;5074308;28;20524;-73
2022/01/28 06:04:13;;;;;;;8.02;4.55;;;1.90;99.90;;;;;;5075537;28;20115;-73
2022/01/28 06:06:39;;;;;;;9.85;5.07;;;1.90;99.90;;;;;;5076135;28;20138;-73
2022/01/28 06:09:11;;;;;;;11.38;6.35;;;1.90;99.90;;;;;;5076035;28;20052;-74
2022/01/28 06:11:38;;;;;;;9.00;5.40;;;1.90;99.90;;;;;;5093665;28;20127;-73
2022/01/28 06:14:11;;;;;;;9.27;5.28;;;1.90;99.90;;;;;;5075369;28;20402;-73
2022/01/28 06:16:42;;;;;;;10.50;5.95;;;2.00;99.90;;;;;;5093769;28;20046;-73
2022/01/28 06:19:14;;;;;;;7.88;5.50;;;2.00;99.90;;;;;;5092663;28;20044;-73
2022/01/28 06:21:46;;;;;;;8.70;5.28;;;2.00;99.90;;;;;;5093650;28;20054;-73
2022/01/28 06:24:14;;;;;;;11.00;6.47;;;2.00;99.90;;;;;;5092752;28;20047;-73
2022/01/28 06:26:47;;;;;;;9.83;5.20;;;2.00;99.90;;;;;;5094169;28;20051;-73
2022/01/28 06:29:19;;;;;;;11.68;6.40;;;2.10;99.90;;;;;;5092783;28;20373;-73
2022/01/28 06:31:50;;;;;;;14.65;6.97;;;2.10;99.90;;;;;;5090207;28;20044;-73
2022/01/28 06:34:17;;;;;;;12.82;6.07;;;2.00;99.90;;;;;;5057140;28;20056;-73
2022/01/28 06:36:44;;;;;;;11.35;6.50;;;2.00;99.90;;;;;;5075330;28;20058;-73
2022/01/28 06:39:16;;;;;;;7.63;5.28;;;2.10;99.90;;;;;;5075757;28;20470;-73
2022/01/28 06:41:42;;;;;;;8.65;5.80;;;2.00;99.90;;;;;;5078190;28;20047;-73
2022/01/28 06:44:10;;;;;;;8.05;5.15;;;2.00;99.90;;;;;;5074435;28;20078;-73
2022/01/28 06:46:37;;;;;;;8.88;4.68;;;2.00;99.90;;;;;;5093218;28;20036;-73
2022/01/28 06:49:09;;;;;;;9.82;5.90;;;2.10;99.90;;;;;;5092842;28;20044;-73
2022/01/28 06:51:41;;;;;;;10.48;5.40;;;2.10;99.90;;;;;;5069143;28;20485;-73
2022/01/28 06:54:12;;;;;;;9.63;5.53;;;2.10;99.90;;;;;;5051635;28;20131;-73
2022/01/28 06:56:39;;;;;;;9.13;5.32;;;2.10;99.90;;;;;;5071651;28;20131;-73
2022/01/28 06:59:11;;;;;;;8.20;5.40;;;2.10;99.90;;;;;;5077051;28;20044;-73
2022/01/28 07:01:43;;;;;;;9.13;4.80;;;2.10;99.90;;;;;;5079598;28;20036;-73
2022/01/28 07:04:15;;;;;;;10.30;5.80;;;2.10;99.90;;;;;;5073419;28;20093;-73
2022/01/28 07:06:47;;;;;;;7.40;4.65;;;2.10;99.90;;;;;;5060566;28;20143;-72
2022/01/28 07:09:18;;;;;;;8.00;4.95;;;2.20;99.90;;;;;;5071897;28;20044;-73
2022/01/28 07:11:45;;;;;;;7.82;5.20;;;2.20;99.90;;;;;;5054881;28;20406;-73
2022/01/28 07:14:17;;;;;;;6.43;4.38;;;2.20;99.90;;;;;;5072455;28;20037;-73
2022/01/28 07:16:44;;;;;;;10.93;5.65;;;2.20;99.90;;;;;;5074208;28;20609;-74
2022/01/28 07:19:11;;;;;;;7.80;5.47;;;2.20;99.90;;;;;;5094107;28;20044;-73
2022/01/28 07:21:38;;;;;;;11.70;6.88;;;2.30;99.90;;;;;;5076283;28;20123;-73
2022/01/28 07:24:10;;;;;;;10.52;5.80;;;2.30;99.90;;;;;;5075665;28;20081;-73
2022/01/28 07:26:42;;;;;;;8.88;5.35;;;2.30;99.90;;;;;;5094133;28;20067;-74
2022/01/28 07:29:14;;;;;;;9.45;4.65;;;2.30;99.90;;;;;;5074984;28;20044;-74
2022/01/28 07:31:46;;;;;;;8.68;4.45;;;2.30;99.90;;;;;;5093030;28;20136;-73
2022/01/28 07:34:13;;;;;;;7.20;4.20;;;2.20;99.90;;;;;;5074663;28;20055;-73
2022/01/28 07:36:45;;;;;;;9.77;4.40;;;2.20;99.90;;;;;;5093004;28;20044;-73
2022/01/28 07:39:17;;;;;;;7.53;4.43;;;2.20;99.90;;;;;;5075819;28;20046;-73
2022/01/28 07:41:49;;;;;;;7.60;4.32;;;2.20;99.90;;;;;;5074675;28;20565;-73
2022/01/28 07:44:16;;;;;;;9.95;4.40;;;2.20;99.90;;;;;;5092703;28;20578;-73
2022/01/28 07:46:43;;;;;;;7.22;4.07;;;2.20;99.90;;;;;;5074927;28;20538;-73
2022/01/28 07:49:15;;;;;;;7.13;3.80;;;2.20;99.90;;;;;;5058715;28;20048;-73
2022/01/28 07:51:48;;;;;;;7.70;4.10;;;2.20;99.90;;;;;;5075858;28;20064;-73
2022/01/28 07:54:15;;;;;;;6.90;3.83;;;2.20;99.90;;;;;;5092546;28;20050;-73
2022/01/28 07:56:43;;;;;;;6.10;3.35;;;2.20;99.90;;;;;;5074909;28;20422;-73
2022/01/28 07:59:15;;;;;;;7.18;3.88;;;2.20;99.90;;;;;;5075883;28;20067;-73
2022/01/28 08:01:41;;;;;;;8.93;3.67;;;2.30;99.90;;;;;;5074624;28;20131;-74
2022/01/28 08:04:13;;;;;;;5.80;4.28;;;2.20;99.90;;;;;;5092665;28;20455;-73
2022/01/28 08:06:45;;;;;;;9.45;3.88;;;2.30;99.90;;;;;;5075613;28;20036;-73
2022/01/28 08:09:17;;;;;;;7.45;3.83;;;2.30;99.90;;;;;;5092739;28;20043;-74
2022/01/28 08:11:48;;;;;;;7.82;3.65;;;2.30;99.90;;;;;;5092603;28;20380;-74
2022/01/28 08:14:15;;;;;;;5.38;3.35;;;2.40;99.90;;;;;;5074575;28;20052;-73
2022/01/28 08:16:47;;;;;;;7.72;3.83;;;2.40;99.90;;;;;;5092654;28;20401;-73
2022/01/28 08:19:14;;;;;;;7.32;5.65;;;2.40;99.90;;;;;;5092704;28;20123;-73
2022/01/28 08:21:40;;;;;;;5.70;3.33;;;2.40;99.90;;;;;;5074760;28;20040;-73
2022/01/28 08:24:12;;;;;;;11.40;4.47;;;2.40;99.90;;;;;;5057825;28;20056;-73
2022/01/28 08:26:44;;;;;;;6.15;3.83;;;2.40;99.90;;;;;;5092506;28;20119;-73
2022/01/28 08:29:16;;;;;;;4.38;2.78;;;2.40;99.90;;;;;;5080623;28;20094;-73
2022/01/28 08:31:43;;;;;;;6.53;3.30;;;2.40;99.90;;;;;;5088489;28;20070;-72
2022/01/28 08:34:09;;;;;;;8.02;3.53;;;2.40;99.90;;;;;;5082405;28;20119;-74
2022/01/28 08:36:41;;;;;;;7.93;3.30;;;2.40;99.90;;;;;;5085421;28;20081;-73
2022/01/28 08:39:10;;;;;;;7.18;3.55;;;2.50;99.90;;;;;;5082581;28;20040;-73
2022/01/28 08:41:43;;;;;;;7.75;3.17;;;2.50;99.90;;;;;;5092406;28;20123;-73
2022/01/28 08:44:15;;;;;;;6.63;3.43;;;2.50;99.90;;;;;;5089806;28;20044;-73
2022/01/28 08:46:47;;;;;;;5.82;3.30;;;2.60;99.90;;;;;;5090884;28;20282;-73
2022/01/28 08:49:14;;;;;;;6.50;3.13;;;2.60;99.90;;;;;;5091877;28;20044;-72
2022/01/28 08:51:48;;;;;;;5.80;3.10;;;2.70;99.90;;;;;;5057707;28;20052;-72
2022/01/28 08:54:15;;;;;;;9.80;3.88;;;2.70;99.90;;;;;;5073665;28;20048;-72
2022/01/28 08:56:47;;;;;;;5.05;3.15;;;2.70;99.90;;;;;;5072798;28;20727;-72
2022/01/28 08:59:19;;;;;;;6.57;3.08;;;2.80;99.90;;;;;;5091874;28;20036;-72
2022/01/28 09:01:45;;;;;;;8.25;3.63;;;2.80;99.90;;;;;;5074044;28;20105;-72
2022/01/28 09:04:12;;;;;;;8.57;4.25;;;2.70;99.90;;;;;;5073412;28;20050;-73
2022/01/28 09:06:46;;;;;;;7.93;4.90;;;2.70;99.90;;;;;;5089468;28;20119;-72
2022/01/28 09:09:19;;;;;;;5.95;3.30;;;2.70;99.90;;;;;;5090260;28;20407;-72
2022/01/28 09:12:06;;;;;;;8.45;3.78;;;2.80;99.90;;;;;;5069965;28;20059;-73
2022/01/28 09:14:38;;;;;;;9.75;3.55;;;2.80;99.90;;;;;;5076499;28;20495;-72
2022/01/28 09:17:11;;;;;;;5.65;3.28;;;2.90;99.90;;;;;;5054813;28;20124;-73
2022/01/28 09:19:44;;;;;;;7.20;4.60;;;2.90;99.90;;;;;;5054443;28;20047;-74
2022/01/28 09:22:11;;;;;;;6.30;3.20;;;2.90;99.90;;;;;;5039588;28;20498;-73
2022/01/28 09:24:43;;;;;;;5.22;2.67;;;2.90;99.90;;;;;;5089245;28;20123;-73
2022/01/28 09:27:15;;;;;;;6.32;3.17;;;2.90;99.90;;;;;;5088763;28;20491;-72
2022/01/28 09:29:41;;;;;;;4.75;3.35;;;3.00;99.90;;;;;;5073162;28;20138;-73
2022/01/28 09:32:16;;;;;;;4.68;2.95;;;3.00;99.90;;;;;;5086480;28;20040;-72
2022/01/28 09:34:48;;;;;;;8.23;4.30;;;3.00;99.90;;;;;;5072903;28;20044;-72
2022/01/28 09:37:19;;;;;;;6.22;3.28;;;2.90;99.90;;;;;;5085077;28;20040;-73
2022/01/28 09:39:46;;;;;;;4.38;3.03;;;3.00;99.90;;;;;;5057071;28;20049;-73
2022/01/28 09:42:16;;;;;;;6.75;2.85;;;3.00;99.90;;;;;;5074256;28;20119;-73
2022/01/28 09:44:47;;;;;;;6.97;4.22;;;3.10;99.90;;;;;;5057540;28;20041;-73
2022/01/28 09:47:19;;;;;;;4.93;2.90;;;3.10;99.90;;;;;;5075452;28;20376;-73
2022/01/28 09:49:52;;;;;;;8.32;2.90;;;3.20;99.90;;;;;;5061506;28;20068;-73
2022/01/28 09:52:19;;;;;;;4.72;3.05;;;3.20;99.90;;;;;;5076803;28;20052;-73
2022/01/28 09:54:51;;;;;;;6.93;3.30;;;3.20;99.90;;;;;;5095185;28;20126;-73
2022/01/28 09:57:22;;;;;;;4.65;2.38;;;3.30;99.90;;;;;;5061521;28;20143;-73
2022/01/28 09:59:54;;;;;;;5.53;3.92;;;3.40;99.90;;;;;;5077032;28;20062;-72
2022/01/28 10:02:59;;;;;;;6.32;3.00;;;3.40;99.90;;;;;;5095168;28;20219;-73
2022/01/28 10:05:34;;;;;;;4.30;2.63;;;3.40;99.90;;;;;;5094847;28;20064;-74
2022/01/28 10:08:23;;;;;;;9.07;3.40;;;3.40;99.90;;;;;;5077097;28;20453;-73
2022/01/28 10:11:08;;;;;;;6.35;3.10;;;3.40;99.90;;;;;;5094764;28;20432;-73
2022/01/28 10:13:46;;;;;;;5.00;2.65;;;3.40;99.90;;;;;;5076442;28;20044;-73
2022/01/28 10:16:18;;;;;;;6.18;2.63;;;3.40;99.90;;;;;;5093233;28;20487;-73
2022/01/28 10:18:47;;;;;;;5.82;2.38;;;3.40;99.90;;;;;;5093488;28;20050;-73
2022/01/28 10:21:22;;;;;;;6.30;2.05;;;3.40;99.90;;;;;;5108662;28;20734;-73
2022/01/28 10:24:17;;;;;;;3.92;2.22;;;3.50;99.90;;;;;;5092872;28;20039;-73
2022/01/28 10:26:54;;;;;;;6.35;2.38;;;3.50;99.90;;;;;;5094789;28;20043;-73
2022/01/28 10:29:30;;;;;;;5.53;1.65;;;3.50;99.90;;;;;;5094297;28;20575;-73
2022/01/28 10:32:04;;;;;;;6.57;2.08;;;3.50;99.90;;;;;;5094524;28;20058;-73
2022/01/28 10:34:36;;;;;;;9.07;2.95;;;3.50;99.90;;;;;;5077672;28;20031;-73
2022/01/28 10:37:20;;;;;;;3.25;1.80;;;3.50;99.90;;;;;;5094660;28;20523;-73
2022/01/28 10:40:02;;;;;;;4.20;1.83;;;3.60;99.90;;;;;;5094210;28;20036;-73
2022/01/28 10:42:52;;;;;;;4.97;2.45;;;3.60;99.90;;;;;;5075673;28;20072;-73
2022/01/28 10:45:20;;;;;;;;;;;3.50;99.90;;;;;;5075949;28;20143;-72
2022/01/28 10:47:58;;;;;;;4.90;1.90;;;3.60;99.90;;;;;;5093297;28;19977;-73
2022/01/28 10:50:31;;;;;;;2.85;1.77;;;3.60;99.90;;;;;;5093413;28;20126;-73
2022/01/28 10:53:15;;;;;;;3.53;1.90;;;3.60;99.90;;;;;;5076500;28;20044;-72
2022/01/28 10:55:54;;;;;;;7.38;3.05;;;3.50;99.90;;;;;;5091950;28;20093;-73
2022/01/28 10:58:24;;;;;;;6.88;2.20;;;3.50;99.90;;;;;;5050604;28;20047;-73
2022/01/28 11:00:57;;;;;;;4.68;2.17;;;3.40;99.90;;;;;;5092425;28;20102;-72
2022/01/28 11:03:27;;;;;;;6.57;2.13;;;3.40;99.90;;;;;;5093082;28;20068;-73
2022/01/28 11:06:01;;;;;;;7.68;2.60;;;3.50;99.90;;;;;;5091117;28;20521;-73
2022/01/28 11:08:31;;;;;;;6.45;2.50;;;3.50;99.90;;;;;;5073490;28;20048;-72
2022/01/28 11:11:03;;;;;;;7.30;2.78;;;3.50;99.90;;;;;;5073583;28;20051;-72
2022/01/28 11:13:30;;;;;;;6.97;2.60;;;3.60;99.90;;;;;;5092988;28;20115;-73
2022/01/28 11:15:57;;;;;;;5.10;2.10;;;3.70;99.90;;;;;;5075449;28;20055;-73
2022/01/28 11:18:30;;;;;;;4.38;1.95;;;3.70;99.90;;;;;;5076365;28;20075;-73
2022/01/28 11:21:13;;;;;;;3.30;2.03;;;3.70;99.90;;;;;;5093183;28;20036;-73
2022/01/28 11:24:10;;;;;;;4.30;2.78;;;3.70;99.90;;;;;;5074462;28;20041;-73
2022/01/28 11:27:02;;;;;;;4.68;2.60;;;3.70;99.90;;;;;;5079692;28;20175;-73
2022/01/28 11:29:29;;;;;;;3.15;2.00;;;3.70;99.90;;;;;;5092720;28;20543;-73
2022/01/28 11:32:14;;;;;;;6.07;2.40;;;3.80;99.90;;;;;;5075027;28;20040;-73
2022/01/28 11:35:02;;;;;;;3.53;2.22;;;3.70;99.90;;;;;;5074368;28;20073;-72
2022/01/28 11:37:31;;;;;;;6.03;1.88;;;3.80;99.90;;;;;;5091448;28;20040;-72
2022/01/28 11:40:07;;;;;;;;;;;3.80;99.90;;;;;;5074476;28;20054;-73
2022/01/28 11:42:34;;;;;;;5.90;2.08;;;3.80;99.90;;;;;;5073524;28;20022;-73
2022/01/28 11:45:10;;;;;;;6.50;2.20;;;3.90;99.90;;;;;;5091782;28;20067;-73
2022/01/28 11:47:40;;;;;;;5.57;1.88;;;3.90;99.90;;;;;;5074032;28;20048;-73
2022/01/28 11:50:17;;;;;;;3.45;1.60;;;3.90;99.90;;;;;;5073336;28;20044;-73
2022/01/28 11:52:46;;;;;;;5.60;1.90;;;3.90;99.90;;;;;;5056741;28;20074;-73
2022/01/28 11:55:18;;;;;;;6.65;1.95;;;3.90;99.90;;;;;;5091153;28;20071;-73
2022/01/28 11:58:03;;;;;;;4.70;1.85;;;3.90;99.90;;;;;;5074838;28;20134;-73
2022/01/28 12:00:45;;;;;;;6.13;2.33;;;3.90;99.90;;;;;;5053615;28;20658;-73
2022/01/28 12:03:31;;;;;;;7.25;1.38;;;4.00;99.90;;;;;;5061628;28;20127;-73
2022/01/28 12:06:08;;;;;;;16.05;4.45;;;4.00;99.90;;;;;;5073403;28;20043;-73
2022/01/28 12:08:45;;;;;;;2.95;1.70;;;4.00;99.90;;;;;;5073257;28;20446;-72
2022/01/28 12:11:41;;;;;;;6.63;2.00;;;3.90;99.90;;;;;;5070325;28;20044;-72
2022/01/28 12:14:14;;;;;;;7.28;2.28;;;3.90;99.90;;;;;;5064464;28;20471;-73
2022/01/28 12:16:47;;;;;;;5.75;2.20;;;3.90;99.90;;;;;;5074971;28;20470;-72
2022/01/28 12:19:20;;;;;;;6.73;2.87;;;3.90;99.90;;;;;;5058339;28;20040;-73
2022/01/28 12:22:09;;;;;;;4.45;2.63;;;3.80;99.90;;;;;;5091902;28;20039;-73
2022/01/28 12:24:37;;;;;;;5.40;2.28;;;3.80;99.90;;;;;;5056535;28;20048;-72
2022/01/28 12:27:08;;;;;;;7.18;2.13;;;3.90;99.90;;;;;;5073794;28;20132;-73
2022/01/28 12:29:45;;;;;;;5.88;1.40;;;3.90;99.90;;;;;;5068651;28;20060;-73
2022/01/28 12:32:13;;;;;;;5.97;1.60;;;3.90;99.90;;;;;;5086397;28;20093;-72
2022/01/28 12:34:46;;;;;;;5.70;1.67;;;4.00;99.90;;;;;;5073082;28;20121;-73
2022/01/28 12:37:22;;;;;;;2.47;1.70;;;4.00;99.90;;;;;;5074390;28;20048;-72
2022/01/28 12:39:59;;;;;;;5.47;1.75;;;4.00;99.90;;;;;;5067115;28;20046;-73
2022/01/28 12:42:34;;;;;;;7.18;1.88;;;4.00;99.90;;;;;;5072575;28;20103;-72
2022/01/28 12:45:06;;;;;;;5.75;1.77;;;4.00;99.90;;;;;;5091405;28;20060;-72
2022/01/28 12:47:33;;;;;;;7.35;2.28;;;4.00;99.90;;;;;;5091556;28;20114;-72
2022/01/28 12:50:06;;;;;;;6.85;1.70;;;4.00;99.90;;;;;;5069384;28;20051;-73
2022/01/28 12:52:34;;;;;;;7.30;1.83;;;4.10;99.90;;;;;;5072417;28;20040;-73
2022/01/28 12:55:03;;;;;;;4.85;1.73;;;4.10;99.90;;;;;;5073252;28;20093;-73
2022/01/28 12:57:45;;;;;;;7.22;2.60;;;4.10;99.90;;;;;;5073713;28;20152;-73
2022/01/28 13:00:17;;;;;;;3.75;1.70;;;4.10;99.90;;;;;;5089765;28;20122;-73
2022/01/28 13:02:51;;;;;;;5.70;1.92;;;4.10;99.90;;;;;;5087781;28;20032;-73
2022/01/28 13:05:34;;;;;;;6.22;1.88;;;4.10;99.90;;;;;;5055583;28;20054;-73
2022/01/28 13:10:56;;;;;;;5.05;1.88;;;4.10;99.90;;;;;;5071738;28;20048;-73
2022/01/28 13:13:23;;;;;;;7.28;1.88;;;4.20;99.90;;;;;;5090388;28;20048;-73
2022/01/28 13:15:57;;;;;;;4.78;2.50;;;4.20;99.90;;;;;;5090472;28;20109;-72
2022/01/28 13:18:29;;;;;;;6.30;3.20;;;4.20;99.90;;;;;;5056689;28;20140;-73
2022/01/28 13:20:56;;;;;;;18.58;8.70;;;4.20;99.90;;;;;;5091198;28;20052;-72
2022/01/28 13:23:31;;;;;;;7.25;3.90;;;4.20;99.90;;;;;;5073239;28;20097;-72
2022/01/28 13:26:04;;;;;;;9.93;4.53;;;4.30;99.90;;;;;;5072456;28;20064;-73
2022/01/28 13:28:31;;;;;;;5.32;3.15;;;4.30;99.90;;;;;;5070948;28;20079;-73
2022/01/28 13:31:03;;;;;;;9.93;2.00;;;4.40;99.90;;;;;;5088288;28;20123;-73
2022/01/28 13:33:35;;;;;;;5.30;2.83;;;4.50;99.90;;;;;;5071887;28;20603;-73
2022/01/28 13:36:02;;;;;;;6.00;4.20;;;4.50;99.90;;;;;;5070799;28;20043;-73
2022/01/28 13:38:39;;;;;;;3.42;1.50;;;4.50;99.90;;;;;;5072539;28;20085;-73
2022/01/28 13:41:25;;;;;;;3.95;1.17;;;4.50;99.90;;;;;;5084821;28;20513;-73
2022/01/28 13:43:59;;;;;;;5.15;1.80;;;4.40;99.90;;;;;;5071837;28;20052;-73
2022/01/28 13:46:34;;;;;;;5.75;1.80;;;4.40;99.90;;;;;;5072236;28;20490;-73
2022/01/28 13:49:15;;;;;;;4.88;1.60;;;4.40;99.90;;;;;;5030103;28;20076;-73
2022/01/28 13:51:47;;;;;;;6.78;1.92;;;4.40;99.90;;;;;;4941080;28;20049;-73
2022/01/28 13:54:20;;;;;;;7.68;1.88;;;4.40;99.90;;;;;;5066163;28;20041;-73
2022/01/28 13:56:47;;;;;;;4.13;1.40;;;4.40;99.90;;;;;;5049289;28;20060;-73
2022/01/28 13:59:23;;;;;;;4.75;1.75;;;4.30;99.90;;;;;;5052594;28;20056;-73
2022/01/28 14:01:52;;;;;;;6.80;1.95;;;4.30;99.90;;;;;;5070209;28;20090;-73
2022/01/28 14:04:20;;;;;;;5.20;1.92;;;4.30;99.90;;;;;;5064376;28;20072;-72
2022/01/28 14:07:08;;;;;;;;;;;4.20;99.90;;;;;;5049469;28;20488;-72
2022/01/28 14:09:56;;;;;;;4.75;2.00;;;4.20;99.90;;;;;;5032577;28;19921;-73
2022/01/28 14:15:13;;;;;;;7.55;2.03;;;4.30;99.90;;;;;;5032184;28;20067;-73
2022/01/28 14:17:41;;;;;;;6.03;1.70;;;4.30;99.90;;;;;;5052716;28;20410;-73
2022/01/28 14:20:13;;;;;;;4.43;1.40;;;4.30;99.90;;;;;;5051614;28;20046;-73
2022/01/28 14:22:45;;;;;;;4.55;1.75;;;4.30;99.90;;;;;;5070446;28;20049;-73
2022/01/28 14:25:17;;;;;;;4.75;1.70;;;4.30;99.90;;;;;;5073085;28;20123;-73
2022/01/28 14:28:23;;;;;;;3.00;1.60;;;4.30;99.90;;;;;;5055829;28;20109;-74
2022/01/28 14:30:55;;;;;;;6.43;1.50;;;4.30;99.90;;;;;;5073211;28;20552;-73
2022/01/28 14:33:27;;;;;;;4.80;1.83;;;4.30;99.90;;;;;;5054685;28;20127;-73
2022/01/28 14:35:54;;;;;;;2.25;1.52;;;4.30;99.90;;;;;;5072782;28;20062;-73
2022/01/28 14:38:26;;;;;;;4.28;1.95;;;4.20;99.90;;;;;;5055583;28;20048;-73
2022/01/28 14:40:57;;;;;;;3.92;2.60;;;4.20;99.90;;;;;;5056786;28;20064;-73
2022/01/28 14:43:29;;;;;;;5.72;2.00;;;4.10;99.90;;;;;;5055203;28;20503;-73
2022/01/28 14:46:01;;;;;;;3.70;1.95;;;4.10;99.90;;;;;;5066629;28;20132;-73
2022/01/28 14:48:33;;;;;;;3.72;1.98;;;4.10;99.90;;;;;;5067803;28;20112;-74